Terminal Aerodrome Forecast
Issued by NWS Newport/Morehead City, NC

Home | Current Version | Previous Version | Text Only | Print | Product List | Glossary On
Versions: 1 2 3 4 5 6 7 8 9 10 11 12 13 14 15 16 17 18 19 20
000
FTUS42 KMHX 222337
TAFEWN
TAF
KEWN 222337Z 2300/2324 20011KT P6SM VCTS SCT030 BKN060CB
     FM230600 04007KT P6SM OVC012
     FM230900 04008KT P6SM VCSH OVC008
     FM231600 07009KT P6SM VCSH BKN020=

USA.gov is the U.S. government's official web portal to all federal, state and local government web resources and services.